sensor_id;sensor_type;location;lat;lon;timestamp;pressure;altitude;pressure_sealevel;temperature;humidity
62849;BME280;48941;49.516;8.286;2024-03-22T00:01:43;101145.41;;;11.13;100.00
62849;BME280;48941;49.516;8.286;2024-03-22T00:04:11;101141.00;;;11.12;100.00
62849;BME280;48941;49.516;8.286;2024-03-22T00:06:38;101137.16;;;11.16;100.00
62849;BME280;48941;49.516;8.286;2024-03-22T00:09:05;101135.38;;;11.16;100.00
62849;BME280;48941;49.516;8.286;2024-03-22T00:11:31;101126.00;;;11.11;100.00
62849;BME280;48941;49.516;8.286;2024-03-22T00:13:57;101132.50;;;11.07;100.00
62849;BME280;48941;49.516;8.286;2024-03-22T00:16:23;101119.16;;;11.07;100.00
62849;BME280;48941;49.516;8.286;2024-03-22T00:18:50;101118.97;;;10.97;100.00
62849;BME280;48941;49.516;8.286;2024-03-22T00:21:18;101106.81;;;10.80;100.00
62849;BME280;48941;49.516;8.286;2024-03-22T00:23:45;101109.47;;;10.67;100.00
62849;BME280;48941;49.516;8.286;2024-03-22T00:26:10;101107.00;;;10.64;100.00
62849;BME280;48941;49.516;8.286;2024-03-22T00:28:37;101098.59;;;10.57;100.00
62849;BME280;48941;49.516;8.286;2024-03-22T00:31:03;101093.50;;;10.54;100.00
62849;BME280;48941;49.516;8.286;2024-03-22T00:33:30;101095.63;;;10.49;100.00
62849;BME280;48941;49.516;8.286;2024-03-22T00:35:57;101094.88;;;10.47;100.00
62849;BME280;48941;49.516;8.286;2024-03-22T00:38:25;101088.25;;;10.40;100.00
62849;BME280;48941;49.516;8.286;2024-03-22T00:40:51;101088.66;;;10.34;100.00
62849;BME280;48941;49.516;8.286;2024-03-22T00:43:18;101085.06;;;10.35;100.00
62849;BME280;48941;49.516;8.286;2024-03-22T00:45:43;101081.56;;;10.34;100.00
62849;BME280;48941;49.516;8.286;2024-03-22T00:48:10;101073.84;;;10.30;100.00
62849;BME280;48941;49.516;8.286;2024-03-22T00:50:36;101077.91;;;10.35;100.00
62849;BME280;48941;49.516;8.286;2024-03-22T00:53:03;101072.50;;;10.37;100.00
62849;BME280;48941;49.516;8.286;2024-03-22T00:55:32;101063.66;;;10.36;100.00
62849;BME280;48941;49.516;8.286;2024-03-22T00:57:59;101061.47;;;10.29;100.00
62849;BME280;48941;49.516;8.286;2024-03-22T01:00:24;101055.50;;;10.25;100.00
62849;BME280;48941;49.516;8.286;2024-03-22T01:02:51;101052.00;;;10.25;100.00
62849;BME280;48941;49.516;8.286;2024-03-22T01:05:17;101050.28;;;10.24;100.00
62849;BME280;48941;49.516;8.286;2024-03-22T01:07:44;101045.06;;;10.22;100.00
62849;BME280;48941;49.516;8.286;2024-03-22T01:10:10;101053.38;;;10.17;100.00
62849;BME280;48941;49.516;8.286;2024-03-22T01:12:39;101056.34;;;10.13;100.00
62849;BME280;48941;49.516;8.286;2024-03-22T01:15:06;101056.31;;;10.00;100.00
62849;BME280;48941;49.516;8.286;2024-03-22T01:17:33;101048.72;;;9.94;100.00
62849;BME280;48941;49.516;8.286;2024-03-22T01:19:59;101045.13;;;9.95;100.00
62849;BME280;48941;49.516;8.286;2024-03-22T01:22:26;101038.66;;;9.99;100.00
62849;BME280;48941;49.516;8.286;2024-03-22T01:24:52;101045.97;;;9.95;100.00
62849;BME280;48941;49.516;8.286;2024-03-22T01:27:19;101037.44;;;9.90;100.00
62849;BME280;48941;49.516;8.286;2024-03-22T01:29:46;101039.16;;;9.91;100.00
62849;BME280;48941;49.516;8.286;2024-03-22T01:32:13;101037.34;;;9.92;100.00
62849;BME280;48941;49.516;8.286;2024-03-22T01:34:38;101034.16;;;9.87;100.00
62849;BME280;48941;49.516;8.286;2024-03-22T01:37:05;101020.59;;;9.77;100.00
62849;BME280;48941;49.516;8.286;2024-03-22T01:39:31;101025.78;;;9.66;100.00
62849;BME280;48941;49.516;8.286;2024-03-22T01:41:58;101026.84;;;9.63;100.00
62849;BME280;48941;49.516;8.286;2024-03-22T01:44:27;101028.84;;;9.60;100.00
62849;BME280;48941;49.516;8.286;2024-03-22T01:46:56;101035.97;;;9.59;100.00
62849;BME280;48941;49.516;8.286;2024-03-22T01:49:23;101031.59;;;9.58;100.00
62849;BME280;48941;49.516;8.286;2024-03-22T01:51:52;101029.81;;;9.59;100.00
62849;BME280;48941;49.516;8.286;2024-03-22T01:54:19;101037.25;;;9.66;100.00
62849;BME280;48941;49.516;8.286;2024-03-22T01:56:46;101037.06;;;9.69;100.00
62849;BME280;48941;49.516;8.286;2024-03-22T01:59:12;101031.75;;;9.69;100.00
62849;BME280;48941;49.516;8.286;2024-03-22T02:01:39;101031.00;;;9.67;100.00
62849;BME280;48941;49.516;8.286;2024-03-22T02:04:07;101029.09;;;9.69;100.00
62849;BME280;48941;49.516;8.286;2024-03-22T02:06:34;101030.78;;;9.70;100.00
62849;BME280;48941;49.516;8.286;2024-03-22T02:09:00;101027.38;;;9.68;100.00
62849;BME280;48941;49.516;8.286;2024-03-22T02:11:28;101022.19;;;9.67;100.00
62849;BME280;48941;49.516;8.286;2024-03-22T02:13:56;101025.78;;;9.66;100.00
62849;BME280;48941;49.516;8.286;2024-03-22T02:16:23;101028.66;;;9.63;100.00
62849;BME280;48941;49.516;8.286;2024-03-22T02:18:49;101019.28;;;9.57;100.00
62849;BME280;48941;49.516;8.286;2024-03-22T02:21:17;101021.06;;;9.56;100.00
62849;BME280;48941;49.516;8.286;2024-03-22T02:23:44;101016.81;;;9.54;100.00
62849;BME280;48941;49.516;8.286;2024-03-22T02:26:11;101010.53;;;9.55;100.00
62849;BME280;48941;49.516;8.286;2024-03-22T02:28:37;101012.13;;;9.57;100.00
62849;BME280;48941;49.516;8.286;2024-03-22T02:31:04;101009.56;;;9.56;100.00
62849;BME280;48941;49.516;8.286;2024-03-22T02:33:30;101005.88;;;9.59;100.00
62849;BME280;48941;49.516;8.286;2024-03-22T02:35:57;101002.44;;;9.56;100.00
62849;BME280;48941;49.516;8.286;2024-03-22T02:38:23;101011.19;;;9.59;100.00
62849;BME280;48941;49.516;8.286;2024-03-22T02:40:52;100996.19;;;9.57;100.00
62849;BME280;48941;49.516;8.286;2024-03-22T02:43:18;101001.81;;;9.53;100.00
62849;BME280;48941;49.516;8.286;2024-03-22T02:45:46;100991.69;;;9.45;100.00
62849;BME280;48941;49.516;8.286;2024-03-22T02:48:12;100983.13;;;9.40;100.00
62849;BME280;48941;49.516;8.286;2024-03-22T02:50:39;100985.69;;;9.42;100.00
62849;BME280;48941;49.516;8.286;2024-03-22T02:53:05;100974.97;;;9.43;100.00
62849;BME280;48941;49.516;8.286;2024-03-22T02:55:36;100974.22;;;9.41;100.00
62849;BME280;48941;49.516;8.286;2024-03-22T02:58:03;100978.56;;;9.42;100.00
62849;BME280;48941;49.516;8.286;2024-03-22T03:00:30;100974.31;;;9.40;100.00
62849;BME280;48941;49.516;8.286;2024-03-22T03:02:56;100965.59;;;9.37;100.00
62849;BME280;48941;49.516;8.286;2024-03-22T03:05:23;100961.22;;;9.36;100.00
62849;BME280;48941;49.516;8.286;2024-03-22T03:07:49;100958.03;;;9.31;100.00
62849;BME280;48941;49.516;8.286;2024-03-22T03:10:17;100960.13;;;9.26;100.00
62849;BME280;48941;49.516;8.286;2024-03-22T03:12:42;100963.66;;;9.27;100.00
62849;BME280;48941;49.516;8.286;2024-03-22T03:15:11;100958.84;;;9.19;100.00
62849;BME280;48941;49.516;8.286;2024-03-22T03:17:36;100956.44;;;9.14;100.00
62849;BME280;48941;49.516;8.286;2024-03-22T03:20:04;100956.56;;;9.13;100.00
62849;BME280;48941;49.516;8.286;2024-03-22T03:22:33;100956.56;;;9.13;100.00
62849;BME280;48941;49.516;8.286;2024-03-22T03:25:00;100958.75;;;9.06;100.00
62849;BME280;48941;49.516;8.286;2024-03-22T03:27:26;100966.84;;;9.05;100.00
62849;BME280;48941;49.516;8.286;2024-03-22T03:29:53;100961.38;;;8.93;100.00
62849;BME280;48941;49.516;8.286;2024-03-22T03:32:20;100974.94;;;8.89;100.00
62849;BME280;48941;49.516;8.286;2024-03-22T03:34:47;100969.91;;;8.84;100.00
62849;BME280;48941;49.516;8.286;2024-03-22T03:37:12;100965.84;;;8.78;100.00
62849;BME280;48941;49.516;8.286;2024-03-22T03:39:39;100961.66;;;8.74;100.00
62849;BME280;48941;49.516;8.286;2024-03-22T03:42:06;100956.22;;;8.63;100.00
62849;BME280;48941;49.516;8.286;2024-03-22T03:44:32;100957.44;;;8.57;100.00
62849;BME280;48941;49.516;8.286;2024-03-22T03:46:59;100948.91;;;8.52;100.00
62849;BME280;48941;49.516;8.286;2024-03-22T03:49:28;100953.66;;;8.47;100.00
62849;BME280;48941;49.516;8.286;2024-03-22T03:51:53;100952.38;;;8.38;100.00
62849;BME280;48941;49.516;8.286;2024-03-22T03:54:20;100963.13;;;8.37;100.00
62849;BME280;48941;49.516;8.286;2024-03-22T03:56:46;100965.00;;;8.35;100.00
62849;BME280;48941;49.516;8.286;2024-03-22T03:59:13;100952.59;;;8.35;100.00
62849;BME280;48941;49.516;8.286;2024-03-22T04:01:39;100942.06;;;8.34;100.00
62849;BME280;48941;49.516;8.286;2024-03-22T04:04:05;100941.75;;;8.38;100.00
62849;BME280;48941;49.516;8.286;2024-03-22T04:06:32;100943.97;;;8.46;100.00
62849;BME280;48941;49.516;8.286;2024-03-22T04:09:01;100935.47;;;8.41;100.00
62849;BME280;48941;49.516;8.286;2024-03-22T04:11:28;100936.34;;;8.40;100.00
62849;BME280;48941;49.516;8.286;2024-03-22T04:13:55;100938.66;;;8.46;100.00
62849;BME280;48941;49.516;8.286;2024-03-22T04:16:20;100937.44;;;8.52;100.00
62849;BME280;48941;49.516;8.286;2024-03-22T04:18:47;100932.22;;;8.50;100.00
62849;BME280;48941;49.516;8.286;2024-03-22T04:21:13;100935.53;;;8.54;100.00
62849;BME280;48941;49.516;8.286;2024-03-22T04:23:41;100936.75;;;8.48;100.00
62849;BME280;48941;49.516;8.286;2024-03-22T04:26:07;100938.66;;;8.46;100.00
62849;BME280;48941;49.516;8.286;2024-03-22T04:28:34;100930.63;;;8.48;100.00
62849;BME280;48941;49.516;8.286;2024-03-22T04:31:01;100931.28;;;8.51;100.00
62849;BME280;48941;49.516;8.286;2024-03-22T04:33:28;100929.56;;;8.50;100.00
62849;BME280;48941;49.516;8.286;2024-03-22T04:35:55;100921.88;;;8.60;100.00
62849;BME280;48941;49.516;8.286;2024-03-22T04:38:23;100923.28;;;8.66;100.00
62849;BME280;48941;49.516;8.286;2024-03-22T04:40:51;100916.81;;;8.70;100.00
62849;BME280;48941;49.516;8.286;2024-03-22T04:43:18;100918.72;;;8.68;100.00
62849;BME280;48941;49.516;8.286;2024-03-22T04:45:47;100923.19;;;8.67;100.00
62849;BME280;48941;49.516;8.286;2024-03-22T04:48:14;100915.97;;;8.69;100.00
62849;BME280;48941;49.516;8.286;2024-03-22T04:50:41;100918.53;;;8.71;100.00
62849;BME280;48941;49.516;8.286;2024-03-22T04:53:06;100923.94;;;8.69;100.00
62849;BME280;48941;49.516;8.286;2024-03-22T04:55:33;100914.38;;;8.67;100.00
62849;BME280;48941;49.516;8.286;2024-03-22T04:58:01;100921.19;;;8.71;100.00
62849;BME280;48941;49.516;8.286;2024-03-22T05:00:28;100916.16;;;8.66;100.00
62849;BME280;48941;49.516;8.286;2024-03-22T05:02:54;100922.53;;;8.64;100.00
62849;BME280;48941;49.516;8.286;2024-03-22T05:05:21;100923.75;;;8.58;100.00
62849;BME280;48941;49.516;8.286;2024-03-22T05:07:47;100921.19;;;8.56;100.00
62849;BME280;48941;49.516;8.286;2024-03-22T05:10:14;100916.38;;;8.63;100.00
62849;BME280;48941;49.516;8.286;2024-03-22T05:12:42;100905.84;;;8.62;100.00
62849;BME280;48941;49.516;8.286;2024-03-22T05:15:10;100919.03;;;8.63;100.00
62849;BME280;48941;49.516;8.286;2024-03-22T05:17:36;100915.63;;;8.61;100.00
62849;BME280;48941;49.516;8.286;2024-03-22T05:20:05;100922.84;;;8.59;100.00
62849;BME280;48941;49.516;8.286;2024-03-22T05:22:34;100913.06;;;8.60;100.00
62849;BME280;48941;49.516;8.286;2024-03-22T05:25:01;100914.00;;;8.58;100.00
62849;BME280;48941;49.516;8.286;2024-03-22T05:27:27;100920.06;;;8.61;100.00
62849;BME280;48941;49.516;8.286;2024-03-22T05:29:54;100921.13;;;8.58;100.00
62849;BME280;48941;49.516;8.286;2024-03-22T05:32:21;100921.03;;;8.60;100.00
62849;BME280;48941;49.516;8.286;2024-03-22T05:34:47;100914.97;;;8.57;100.00
62849;BME280;48941;49.516;8.286;2024-03-22T05:37:13;100916.84;;;8.55;100.00
62849;BME280;48941;49.516;8.286;2024-03-22T05:39:40;100920.66;;;8.51;100.00
62849;BME280;48941;49.516;8.286;2024-03-22T05:42:06;100913.00;;;8.47;100.00
62849;BME280;48941;49.516;8.286;2024-03-22T05:44:33;100910.44;;;8.45;100.00
62849;BME280;48941;49.516;8.286;2024-03-22T05:46:59;100913.84;;;8.47;100.00
62849;BME280;48941;49.516;8.286;2024-03-22T05:49:28;100910.34;;;8.47;100.00
62849;BME280;48941;49.516;8.286;2024-03-22T05:51:54;100909.38;;;8.48;100.00
62849;BME280;48941;49.516;8.286;2024-03-22T05:54:21;100907.38;;;8.51;100.00
62849;BME280;48941;49.516;8.286;2024-03-22T05:56:47;100908.13;;;8.53;100.00
62849;BME280;48941;49.516;8.286;2024-03-22T05:59:13;100905.28;;;8.56;100.00
62849;BME280;48941;49.516;8.286;2024-03-22T06:01:39;100895.22;;;8.62;100.00
62849;BME280;48941;49.516;8.286;2024-03-22T06:04:06;100890.34;;;8.68;100.00
62849;BME280;48941;49.516;8.286;2024-03-22T06:06:33;100900.72;;;8.73;100.00
62849;BME280;48941;49.516;8.286;2024-03-22T06:09:00;100894.25;;;8.77;100.00
62849;BME280;48941;49.516;8.286;2024-03-22T06:11:30;100886.16;;;8.78;100.00
62849;BME280;48941;49.516;8.286;2024-03-22T06:13:57;100883.41;;;8.80;100.00
62849;BME280;48941;49.516;8.286;2024-03-22T06:16:22;100886.63;;;8.85;100.00
62849;BME280;48941;49.516;8.286;2024-03-22T06:18:49;100882.06;;;8.87;100.00
62849;BME280;48941;49.516;8.286;2024-03-22T06:21:15;100887.81;;;8.94;100.00
62849;BME280;48941;49.516;8.286;2024-03-22T06:23:49;100884.75;;;9.00;100.00
62849;BME280;48941;49.516;8.286;2024-03-22T06:26:15;100872.03;;;9.05;100.00
62849;BME280;48941;49.516;8.286;2024-03-22T06:28:42;100872.88;;;9.06;100.00
62849;BME280;48941;49.516;8.286;2024-03-22T06:31:08;100881.19;;;9.14;100.00
62849;BME280;48941;49.516;8.286;2024-03-22T06:33:34;100882.69;;;9.18;100.00
62849;BME280;48941;49.516;8.286;2024-03-22T06:36:00;100876.88;;;9.26;100.00
62849;BME280;48941;49.516;8.286;2024-03-22T06:38:28;100872.13;;;9.31;100.00
62849;BME280;48941;49.516;8.286;2024-03-22T06:40:56;100872.34;;;9.41;100.00
62849;BME280;48941;49.516;8.286;2024-03-22T06:43:23;100868.94;;;9.51;100.00
62849;BME280;48941;49.516;8.286;2024-03-22T06:45:48;100866.94;;;9.55;100.00
62849;BME280;48941;49.516;8.286;2024-03-22T06:48:15;100864.69;;;9.62;100.00
62849;BME280;48941;49.516;8.286;2024-03-22T06:50:42;100863.19;;;9.70;100.00
62849;BME280;48941;49.516;8.286;2024-03-22T06:53:08;100856.41;;;9.79;100.00
62849;BME280;48941;49.516;8.286;2024-03-22T06:55:35;100861.00;;;10.03;100.00
62849;BME280;48941;49.516;8.286;2024-03-22T06:58:03;100863.72;;;10.27;100.00
62849;BME280;48941;49.516;8.286;2024-03-22T07:00:29;100853.69;;;10.43;100.00
62849;BME280;48941;49.516;8.286;2024-03-22T07:03:00;100856.19;;;10.57;100.00
62849;BME280;48941;49.516;8.286;2024-03-22T07:05:28;100850.03;;;10.57;100.00
62849;BME280;48941;49.516;8.286;2024-03-22T07:07:56;100843.00;;;10.56;100.00
62849;BME280;48941;49.516;8.286;2024-03-22T07:10:23;100845.44;;;10.59;100.00
62849;BME280;48941;49.516;8.286;2024-03-22T07:12:54;100844.34;;;10.62;100.00
62849;BME280;48941;49.516;8.286;2024-03-22T07:15:23;100842.44;;;10.64;100.00
62849;BME280;48941;49.516;8.286;2024-03-22T07:17:51;100843.28;;;10.64;100.00
62849;BME280;48941;49.516;8.286;2024-03-22T07:20:17;100836.03;;;10.66;100.00
62849;BME280;48941;49.516;8.286;2024-03-22T07:22:44;100841.13;;;10.69;100.00
62849;BME280;48941;49.516;8.286;2024-03-22T07:25:11;100844.53;;;10.71;100.00
62849;BME280;48941;49.516;8.286;2024-03-22T07:27:38;100845.28;;;10.73;100.00
62849;BME280;48941;49.516;8.286;2024-03-22T07:30:05;100837.91;;;10.77;100.00
62849;BME280;48941;49.516;8.286;2024-03-22T07:32:33;100827.63;;;10.84;100.00
62849;BME280;48941;49.516;8.286;2024-03-22T07:34:59;100839.66;;;10.89;100.00
62849;BME280;48941;49.516;8.286;2024-03-22T07:37:25;100833.03;;;10.95;100.00
62849;BME280;48941;49.516;8.286;2024-03-22T07:39:51;100835.34;;;11.00;100.00
62849;BME280;48941;49.516;8.286;2024-03-22T07:42:18;100834.03;;;11.05;100.00
62849;BME280;48941;49.516;8.286;2024-03-22T07:44:44;100838.56;;;11.16;100.00
62849;BME280;48941;49.516;8.286;2024-03-22T07:47:11;100829.34;;;11.20;100.00
62849;BME280;48941;49.516;8.286;2024-03-22T07:49:38;100829.13;;;11.23;100.00
62849;BME280;48941;49.516;8.286;2024-03-22T07:52:05;100823.59;;;11.26;100.00
62849;BME280;48941;49.516;8.286;2024-03-22T07:54:31;100830.38;;;11.30;100.00
62849;BME280;48941;49.516;8.286;2024-03-22T07:56:58;100830.13;;;11.33;100.00
62849;BME280;48941;49.516;8.286;2024-03-22T07:59:24;100820.09;;;11.37;100.00
62849;BME280;48941;49.516;8.286;2024-03-22T08:01:51;100827.72;;;11.42;100.00
62849;BME280;48941;49.516;8.286;2024-03-22T08:04:17;100812.34;;;11.45;100.00
62849;BME280;48941;49.516;8.286;2024-03-22T08:06:46;100819.13;;;11.49;100.00
62849;BME280;48941;49.516;8.286;2024-03-22T08:09:12;100822.53;;;11.51;100.00
62849;BME280;48941;49.516;8.286;2024-03-22T08:11:38;100817.69;;;11.56;100.00
62849;BME280;48941;49.516;8.286;2024-03-22T08:14:04;100813.94;;;11.59;100.00
62849;BME280;48941;49.516;8.286;2024-03-22T08:16:31;100814.44;;;11.64;100.00
62849;BME280;48941;49.516;8.286;2024-03-22T08:18:57;100808.13;;;11.65;100.00
62849;BME280;48941;49.516;8.286;2024-03-22T08:21:24;100812.38;;;11.68;100.00
62849;BME280;48941;49.516;8.286;2024-03-22T08:23:52;100807.53;;;11.73;100.00
62849;BME280;48941;49.516;8.286;2024-03-22T08:26:19;100809.22;;;11.74;100.00
62849;BME280;48941;49.516;8.286;2024-03-22T08:28:45;100807.41;;;11.74;100.00
62849;BME280;48941;49.516;8.286;2024-03-22T08:31:12;100802.66;;;11.78;100.00
62849;BME280;48941;49.516;8.286;2024-03-22T08:33:38;100799.16;;;11.77;100.00
62849;BME280;48941;49.516;8.286;2024-03-22T08:36:05;100795.38;;;11.80;100.00
62849;BME280;48941;49.516;8.286;2024-03-22T08:38:31;100797.94;;;11.82;100.00
62849;BME280;48941;49.516;8.286;2024-03-22T08:41:00;100800.25;;;11.86;100.00
62849;BME280;48941;49.516;8.286;2024-03-22T08:43:25;100796.59;;;11.87;100.00
62849;BME280;48941;49.516;8.286;2024-03-22T08:45:54;100788.25;;;11.92;100.00
62849;BME280;48941;49.516;8.286;2024-03-22T08:48:21;100789.84;;;11.94;100.00
62849;BME280;48941;49.516;8.286;2024-03-22T08:50:48;100791.31;;;11.99;100.00
62849;BME280;48941;49.516;8.286;2024-03-22T08:53:14;100776.03;;;12.01;100.00
62849;BME280;48941;49.516;8.286;2024-03-22T08:55:45;100777.47;;;12.05;100.00
62849;BME280;48941;49.516;8.286;2024-03-22T08:58:12;100777.94;;;12.10;100.00
62849;BME280;48941;49.516;8.286;2024-03-22T09:00:39;100774.31;;;12.11;100.00
62849;BME280;48941;49.516;8.286;2024-03-22T09:03:05;100769.56;;;12.14;100.00
62849;BME280;48941;49.516;8.286;2024-03-22T09:05:32;100759.47;;;12.18;100.00
62849;BME280;48941;49.516;8.286;2024-03-22T09:07:59;100757.66;;;12.19;100.00
62849;BME280;48941;49.516;8.286;2024-03-22T09:10:26;100759.00;;;12.24;100.00
62849;BME280;48941;49.516;8.286;2024-03-22T09:12:52;100760.44;;;12.28;100.00
62849;BME280;48941;49.516;8.286;2024-03-22T09:15:20;100759.34;;;12.31;100.00
62849;BME280;48941;49.516;8.286;2024-03-22T09:17:47;100763.34;;;12.37;100.00
62849;BME280;48941;49.516;8.286;2024-03-22T09:20:14;100763.78;;;12.42;100.00
62849;BME280;48941;49.516;8.286;2024-03-22T09:22:40;100755.97;;;12.50;100.00
62849;BME280;48941;49.516;8.286;2024-03-22T09:25:07;100749.41;;;12.54;100.00
62849;BME280;48941;49.516;8.286;2024-03-22T09:27:33;100752.69;;;12.58;100.00
62849;BME280;48941;49.516;8.286;2024-03-22T09:30:00;100747.53;;;12.66;100.00
62849;BME280;48941;49.516;8.286;2024-03-22T09:32:28;100737.06;;;12.74;100.00
62849;BME280;48941;49.516;8.286;2024-03-22T09:34:55;100729.84;;;12.86;100.00
62849;BME280;48941;49.516;8.286;2024-03-22T09:37:20;100732.47;;;12.97;100.00
62849;BME280;48941;49.516;8.286;2024-03-22T09:39:47;100734.22;;;13.08;100.00
62849;BME280;48941;49.516;8.286;2024-03-22T09:42:16;100728.69;;;13.21;100.00
62849;BME280;48941;49.516;8.286;2024-03-22T09:44:47;100734.00;;;13.32;100.00
62849;BME280;48941;49.516;8.286;2024-03-22T09:47:14;100733.19;;;13.41;100.00
62849;BME280;48941;49.516;8.286;2024-03-22T09:49:44;100726.75;;;13.53;100.00
62849;BME280;48941;49.516;8.286;2024-03-22T09:52:12;100727.50;;;13.65;100.00
62849;BME280;48941;49.516;8.286;2024-03-22T09:54:41;100720.38;;;13.75;100.00
62849;BME280;48941;49.516;8.286;2024-03-22T09:57:09;100720.41;;;13.85;100.00
62849;BME280;48941;49.516;8.286;2024-03-22T09:59:38;100711.56;;;13.94;100.00
62849;BME280;48941;49.516;8.286;2024-03-22T10:02:03;100710.00;;;14.02;100.00
62849;BME280;48941;49.516;8.286;2024-03-22T10:04:30;100702.28;;;14.08;100.00
62849;BME280;48941;49.516;8.286;2024-03-22T10:06:57;100702.44;;;14.17;100.00
62849;BME280;48941;49.516;8.286;2024-03-22T10:09:28;100693.84;;;14.23;100.00
62849;BME280;48941;49.516;8.286;2024-03-22T10:11:55;100695.69;;;14.32;100.00
62849;BME280;48941;49.516;8.286;2024-03-22T10:14:22;100696.69;;;14.41;100.00
62849;BME280;48941;49.516;8.286;2024-03-22T10:16:51;100692.31;;;14.49;100.00
62849;BME280;48941;49.516;8.286;2024-03-22T10:19:20;100683.69;;;14.55;100.00
62849;BME280;48941;49.516;8.286;2024-03-22T10:21:47;100684.72;;;14.64;100.00
62849;BME280;48941;49.516;8.286;2024-03-22T10:24:15;100683.84;;;14.73;98.61
62849;BME280;48941;49.516;8.286;2024-03-22T10:26:41;100678.09;;;14.78;96.63
62849;BME280;48941;49.516;8.286;2024-03-22T10:29:08;100674.81;;;14.84;95.50
62849;BME280;48941;49.516;8.286;2024-03-22T10:31:35;100675.91;;;14.91;95.01
62849;BME280;48941;49.516;8.286;2024-03-22T10:34:02;100675.34;;;14.98;94.58
62849;BME280;48941;49.516;8.286;2024-03-22T10:36:29;100665.19;;;15.01;93.33
62849;BME280;48941;49.516;8.286;2024-03-22T10:38:58;100664.44;;;15.09;93.74
62849;BME280;48941;49.516;8.286;2024-03-22T10:41:27;100664.88;;;15.14;90.75
62849;BME280;48941;49.516;8.286;2024-03-22T10:43:54;100653.56;;;15.20;90.81
62849;BME280;48941;49.516;8.286;2024-03-22T10:46:20;100650.16;;;15.28;91.10
62849;BME280;48941;49.516;8.286;2024-03-22T10:48:48;100651.38;;;15.33;90.08
62849;BME280;48941;49.516;8.286;2024-03-22T10:51:15;100642.03;;;15.38;88.17
62849;BME280;48941;49.516;8.286;2024-03-22T10:53:43;100642.59;;;15.41;87.54
62849;BME280;48941;49.516;8.286;2024-03-22T10:56:10;100634.38;;;15.43;88.90
62849;BME280;48941;49.516;8.286;2024-03-22T10:58:40;100627.44;;;15.50;87.10
62849;BME280;48941;49.516;8.286;2024-03-22T11:01:21;100627.81;;;15.55;85.91
62849;BME280;48941;49.516;8.286;2024-03-22T11:03:49;100619.16;;;15.61;84.69
62849;BME280;48941;49.516;8.286;2024-03-22T11:06:18;100615.19;;;15.65;85.03
62849;BME280;48941;49.516;8.286;2024-03-22T11:08:49;100608.38;;;15.71;83.81
62849;BME280;48941;49.516;8.286;2024-03-22T11:11:17;100604.28;;;15.77;81.47
62849;BME280;48941;49.516;8.286;2024-03-22T11:13:47;100595.75;;;15.81;81.13
62849;BME280;48941;49.516;8.286;2024-03-22T11:16:14;100590.94;;;15.85;81.27
62849;BME280;48941;49.516;8.286;2024-03-22T11:18:41;100584.09;;;15.90;81.11
62849;BME280;48941;49.516;8.286;2024-03-22T11:21:07;100581.66;;;15.97;81.31
62849;BME280;48941;49.516;8.286;2024-03-22T11:23:34;100580.03;;;16.04;79.39
62849;BME280;48941;49.516;8.286;2024-03-22T11:26:02;100574.19;;;16.09;80.11
62849;BME280;48941;49.516;8.286;2024-03-22T11:28:29;100568.06;;;16.17;79.40
62849;BME280;48941;49.516;8.286;2024-03-22T11:30:56;100561.75;;;16.26;79.12
62849;BME280;48941;49.516;8.286;2024-03-22T11:33:23;100565.72;;;16.40;77.30
62849;BME280;48941;49.516;8.286;2024-03-22T11:35:49;100562.41;;;16.46;75.40
62849;BME280;48941;49.516;8.286;2024-03-22T11:38:16;100555.63;;;16.60;73.92
62849;BME280;48941;49.516;8.286;2024-03-22T11:40:43;100553.34;;;16.73;72.36
62849;BME280;48941;49.516;8.286;2024-03-22T11:43:11;100549.72;;;16.82;72.53
62849;BME280;48941;49.516;8.286;2024-03-22T11:45:40;100545.59;;;16.96;72.16
62849;BME280;48941;49.516;8.286;2024-03-22T11:48:10;100538.94;;;17.08;70.80
62849;BME280;48941;49.516;8.286;2024-03-22T11:50:37;100535.94;;;17.20;68.01
62849;BME280;48941;49.516;8.286;2024-03-22T11:53:05;100531.75;;;17.25;67.47
62849;BME280;48941;49.516;8.286;2024-03-22T11:55:32;100520.84;;;17.35;69.02
62849;BME280;48941;49.516;8.286;2024-03-22T11:57:58;100516.34;;;17.44;66.69
62849;BME280;48941;49.516;8.286;2024-03-22T12:00:25;100511.81;;;17.52;66.53
62849;BME280;48941;49.516;8.286;2024-03-22T12:02:52;100507.09;;;17.63;66.17
62849;BME280;48941;49.516;8.286;2024-03-22T12:05:21;100513.38;;;17.71;66.31
62849;BME280;48941;49.516;8.286;2024-03-22T12:07:47;100509.31;;;17.76;65.92
62849;BME280;48941;49.516;8.286;2024-03-22T12:10:14;100506.13;;;17.80;65.57
62849;BME280;48941;49.516;8.286;2024-03-22T12:12:40;100501.72;;;17.79;65.19
62849;BME280;48941;49.516;8.286;2024-03-22T12:15:07;100497.06;;;17.89;63.46
62849;BME280;48941;49.516;8.286;2024-03-22T12:17:33;100486.63;;;17.86;63.91
62849;BME280;48941;49.516;8.286;2024-03-22T12:20:02;100489.31;;;17.95;65.32
62849;BME280;48941;49.516;8.286;2024-03-22T12:22:31;100484.44;;;17.98;63.59
62849;BME280;48941;49.516;8.286;2024-03-22T12:24:58;100487.63;;;18.02;62.20
62849;BME280;48941;49.516;8.286;2024-03-22T12:27:25;100482.56;;;18.07;61.79
62849;BME280;48941;49.516;8.286;2024-03-22T12:29:52;100484.09;;;18.18;61.73
62849;BME280;48941;49.516;8.286;2024-03-22T12:32:18;100477.50;;;18.28;61.50
62849;BME280;48941;49.516;8.286;2024-03-22T12:34:45;100467.53;;;18.45;61.03
62849;BME280;48941;49.516;8.286;2024-03-22T12:37:11;100470.31;;;18.68;59.57
62849;BME280;48941;49.516;8.286;2024-03-22T12:39:40;100470.28;;;18.85;58.68
62849;BME280;48941;49.516;8.286;2024-03-22T12:42:06;100462.63;;;18.97;58.58
62849;BME280;48941;49.516;8.286;2024-03-22T12:44:33;100463.63;;;19.04;58.37